New Baden, Texas
Current Conditions -  °F | °C
As of 6:55 PM on Friday 24 Oct 2014 (Local Time) from KLHB Reporting Station
Haze Haze  
Wind Chill: 75°   Ceiling: Unl
Heat Index: 75°   Visibility: 2mi
Dew Point: 61°   Wind: 0mph
Humidity: 63%   Direction: NA
Pressure: 30.1"   Gusts: NA
Location:  31.05°N, 96.43°W
Report Text: KLHB 242355Z AUTO 00000KT 2SM HZ CLR 24/16 A3010 RMK AO2 T02380163 10275 20238
Loading
Personal Weather Stations






























Interactive Weather Map
Tropical Storm Tracking
New forecast layout! Learn more

10-Day Weather Forecast

Advertisements
Track Severe Weather on mobile